createdAt,value
2022-11-19T00:00:01.920Z,13.50
2022-11-19T00:01:02.400Z,13.50
2022-11-19T00:02:02.669Z,14.00
2022-11-19T00:03:02.770Z,14.00
2022-11-19T00:04:02.405Z,14.00
2022-11-19T00:05:02.375Z,14.00
2022-11-19T00:06:02.771Z,14.00
2022-11-19T00:07:03.241Z,14.50
2022-11-19T00:08:02.906Z,14.50
2022-11-19T00:09:03.191Z,14.50
2022-11-19T00:10:03.178Z,14.50
2022-11-19T00:11:06.734Z,14.50
2022-11-19T00:12:01.970Z,14.30
2022-11-19T00:13:02.305Z,14.30
2022-11-19T00:14:01.761Z,14.30
2022-11-19T00:15:02.065Z,14.30
2022-11-19T00:16:01.997Z,14.30
2022-11-19T00:17:02.740Z,18.50
2022-11-19T00:18:02.731Z,18.50
2022-11-19T00:19:02.371Z,18.50
2022-11-19T00:20:02.762Z,18.50
2022-11-19T00:21:02.702Z,18.50
2022-11-19T00:22:03.134Z,15.20
2022-11-19T00:23:02.554Z,15.20
2022-11-19T00:24:02.787Z,15.20
2022-11-19T00:25:02.489Z,15.20
2022-11-19T00:26:02.556Z,15.20
2022-11-19T00:27:02.586Z,14.00
2022-11-19T00:28:02.172Z,14.00
2022-11-19T00:29:02.585Z,14.00
2022-11-19T00:30:02.332Z,14.00
2022-11-19T00:31:02.039Z,14.00
2022-11-19T00:32:02.822Z,13.00
2022-11-19T00:33:02.500Z,13.00
2022-11-19T00:34:02.807Z,13.00
2022-11-19T00:35:02.453Z,13.00
2022-11-19T00:36:02.799Z,13.00
2022-11-19T00:37:03.047Z,14.20
2022-11-19T00:38:02.741Z,14.20
2022-11-19T00:39:02.987Z,14.20
2022-11-19T00:40:02.712Z,14.20
2022-11-19T00:41:02.932Z,14.20
2022-11-19T00:42:01.747Z,13.80
2022-11-19T00:43:02.318Z,13.80
2022-11-19T00:44:01.701Z,13.80
2022-11-19T00:45:01.928Z,13.80
2022-11-19T00:46:02.189Z,13.80
2022-11-19T00:47:01.904Z,13.80
2022-11-19T00:48:01.857Z,13.80
2022-11-19T00:49:02.189Z,13.80
2022-11-19T00:50:01.866Z,13.80
2022-11-19T00:51:02.024Z,13.80
2022-11-19T00:52:02.841Z,14.40
2022-11-19T00:53:02.513Z,14.40
2022-11-19T00:54:02.733Z,14.40
2022-11-19T00:55:03.032Z,14.40
2022-11-19T00:56:02.538Z,14.40
2022-11-19T00:57:01.934Z,13.30
2022-11-19T00:58:02.311Z,13.30
2022-11-19T00:59:02.516Z,13.30
2022-11-19T01:00:02.046Z,13.30
2022-11-19T01:01:01.921Z,13.30
2022-11-19T01:02:02.846Z,12.20
2022-11-19T01:03:02.793Z,12.20
2022-11-19T01:04:02.788Z,12.20
2022-11-19T01:05:02.474Z,12.20
2022-11-19T01:06:02.771Z,12.20
2022-11-19T01:07:02.097Z,12.50
2022-11-19T01:08:01.798Z,12.50
2022-11-19T01:09:02.137Z,12.50
2022-11-19T01:10:02.047Z,12.50
2022-11-19T01:11:02.393Z,12.50
2022-11-19T01:12:02.465Z,11.60
2022-11-19T01:13:02.712Z,11.60
2022-11-19T01:14:02.937Z,11.60
2022-11-19T01:15:03.028Z,11.60
2022-11-19T01:16:02.424Z,11.60
2022-11-19T01:17:03.002Z,11.30
2022-11-19T01:18:02.717Z,11.30
2022-11-19T01:19:03.009Z,11.30
2022-11-19T01:20:02.664Z,11.30
2022-11-19T01:21:02.953Z,11.30
2022-11-19T01:22:02.302Z,12.30
2022-11-19T01:23:02.451Z,12.30
2022-11-19T01:24:02.155Z,12.30
2022-11-19T01:25:02.366Z,12.30
2022-11-19T01:26:02.675Z,12.30
2022-11-19T01:27:02.473Z,12.00
2022-11-19T01:28:01.874Z,12.00
2022-11-19T01:29:02.025Z,12.00
2022-11-19T01:30:02.453Z,12.00
2022-11-19T01:31:02.208Z,12.00
2022-11-19T01:32:02.494Z,11.00
2022-11-19T01:33:02.827Z,11.00
2022-11-19T01:34:02.483Z,11.00
2022-11-19T01:35:02.843Z,11.00
2022-11-19T01:36:02.545Z,11.00
2022-11-19T01:37:02.884Z,11.70
2022-11-19T01:38:03.242Z,11.70
2022-11-19T01:39:03.287Z,11.70
2022-11-19T01:40:03.042Z,11.70
2022-11-19T01:41:02.701Z,11.70
2022-11-19T01:42:01.954Z,9.70
2022-11-19T01:43:02.212Z,9.70
2022-11-19T01:44:02.405Z,9.70
2022-11-19T01:45:01.787Z,9.70
2022-11-19T01:46:02.066Z,9.70
2022-11-19T01:47:02.412Z,10.60
2022-11-19T01:48:02.110Z,10.60
2022-11-19T01:49:02.358Z,10.60
2022-11-19T01:50:02.608Z,10.60
2022-11-19T01:51:02.102Z,10.60
2022-11-19T01:52:02.405Z,10.40
2022-11-19T01:53:01.761Z,10.40
2022-11-19T01:54:01.975Z,10.40
2022-11-19T01:55:02.192Z,10.40
2022-11-19T01:56:01.799Z,10.40
2022-11-19T01:57:02.772Z,8.40
2022-11-19T01:58:03.059Z,8.40
2022-11-19T01:59:02.443Z,8.40
2022-11-19T02:00:02.779Z,8.40
2022-11-19T02:01:02.698Z,8.40
2022-11-19T02:02:03.042Z,9.60
2022-11-19T02:03:02.794Z,9.60
2022-11-19T02:04:03.128Z,9.60
2022-11-19T02:05:03.297Z,9.60
2022-11-19T02:06:03.349Z,9.60
2022-11-19T02:07:02.522Z,11.80
2022-11-19T02:08:02.307Z,11.80
2022-11-19T02:09:02.491Z,11.80
2022-11-19T02:10:02.156Z,11.80
2022-11-19T02:11:02.484Z,11.80
2022-11-19T02:12:02.803Z,9.40
2022-11-19T02:13:02.439Z,9.40
2022-11-19T02:14:03.005Z,9.40
2022-11-19T02:15:02.625Z,9.40
2022-11-19T02:16:02.872Z,9.40
2022-11-19T02:17:02.140Z,9.40
2022-11-19T02:18:01.766Z,9.40
2022-11-19T02:19:01.955Z,9.40
2022-11-19T02:20:02.194Z,9.40
2022-11-19T02:21:01.849Z,9.40
2022-11-19T02:22:02.890Z,8.90
2022-11-19T02:23:02.535Z,8.90
2022-11-19T02:24:02.940Z,8.90
2022-11-19T02:25:02.582Z,8.90
2022-11-19T02:26:02.786Z,8.90
2022-11-19T02:27:03.211Z,7.90
2022-11-19T02:28:02.612Z,7.90
2022-11-19T02:29:02.967Z,7.90
2022-11-19T02:30:02.837Z,7.90
2022-11-19T02:31:03.094Z,7.90
2022-11-19T02:32:02.485Z,8.00
2022-11-19T02:33:02.141Z,8.00
2022-11-19T02:34:02.466Z,8.00
2022-11-19T02:35:02.134Z,8.00
2022-11-19T02:36:02.461Z,8.00
2022-11-19T02:37:02.730Z,7.40
2022-11-19T02:38:02.735Z,7.40
2022-11-19T02:39:02.266Z,7.40
2022-11-19T02:40:02.768Z,7.40
2022-11-19T02:41:02.442Z,7.40
2022-11-19T02:42:02.458Z,7.30
2022-11-19T02:43:03.122Z,7.30
2022-11-19T02:44:02.383Z,7.30
2022-11-19T02:45:02.706Z,7.30
2022-11-19T02:46:02.375Z,7.30
2022-11-19T02:47:02.316Z,2.90
2022-11-19T02:48:01.966Z,2.90
2022-11-19T02:49:02.209Z,2.90
2022-11-19T02:50:02.485Z,2.90
2022-11-19T02:51:01.876Z,2.90
2022-11-19T02:52:02.794Z,3.20
2022-11-19T02:53:02.299Z,3.20
2022-11-19T02:54:02.559Z,3.20
2022-11-19T02:55:02.876Z,3.20
2022-11-19T02:56:02.299Z,3.20
2022-11-19T02:57:03.231Z,1.60
2022-11-19T02:58:02.745Z,1.60
2022-11-19T02:59:03.176Z,1.60
2022-11-19T03:00:02.755Z,1.60
2022-11-19T03:01:03.118Z,1.60
2022-11-19T03:02:02.532Z,2.50
2022-11-19T03:03:02.544Z,2.50
2022-11-19T03:04:01.893Z,2.50
2022-11-19T03:05:02.120Z,2.50
2022-11-19T03:06:02.287Z,2.50
2022-11-19T03:07:02.549Z,1.10
2022-11-19T03:08:01.930Z,1.10
2022-11-19T03:09:02.066Z,1.10
2022-11-19T03:10:02.454Z,1.10
2022-11-19T03:11:02.255Z,1.10
2022-11-19T03:12:02.475Z,1.60
2022-11-19T03:13:02.100Z,1.60
2022-11-19T03:14:02.347Z,1.60
2022-11-19T03:15:02.524Z,1.60
2022-11-19T03:16:02.266Z,1.60
2022-11-19T03:17:02.574Z,1.20
2022-11-19T03:18:02.550Z,1.20
2022-11-19T03:19:02.065Z,1.20
2022-11-19T03:20:02.230Z,1.20
2022-11-19T03:21:02.175Z,1.20
2022-11-19T03:22:01.567Z,1.20
2022-11-19T03:23:01.802Z,1.20
2022-11-19T03:24:01.966Z,1.20
2022-11-19T03:25:01.534Z,1.20
2022-11-19T03:26:01.851Z,1.20
2022-11-19T03:27:02.737Z,1.90
2022-11-19T03:28:02.736Z,1.90
2022-11-19T03:29:02.644Z,1.90
2022-11-19T03:30:02.223Z,1.90
2022-11-19T03:31:02.395Z,1.90
2022-11-19T03:32:01.796Z,2.20
2022-11-19T03:33:02.048Z,2.20
2022-11-19T03:34:01.719Z,2.20
2022-11-19T03:35:02.036Z,2.20
2022-11-19T03:36:02.194Z,2.20
2022-11-19T03:37:01.713Z,3.30
2022-11-19T03:38:02.029Z,3.30
2022-11-19T03:39:02.210Z,3.30
2022-11-19T03:40:02.364Z,3.30
2022-11-19T03:41:01.745Z,3.30
2022-11-19T03:42:02.060Z,3.00
2022-11-19T03:43:02.398Z,3.00
2022-11-19T03:44:02.751Z,3.00
2022-11-19T03:45:02.134Z,3.00
2022-11-19T03:46:02.516Z,3.00
2022-11-19T03:47:02.595Z,3.80
2022-11-19T03:48:02.420Z,3.80
2022-11-19T03:49:02.032Z,3.80
2022-11-19T03:50:02.329Z,3.80
2022-11-19T03:51:02.631Z,3.80
2022-11-19T03:52:01.745Z,3.50
2022-11-19T03:53:04.563Z,3.50
2022-11-19T03:54:01.748Z,3.50
2022-11-19T03:55:01.864Z,3.50
2022-11-19T03:56:02.076Z,3.50
2022-11-19T03:57:02.379Z,3.30
2022-11-19T03:58:02.705Z,3.30
2022-11-19T03:59:02.887Z,3.30
2022-11-19T04:00:02.258Z,3.30
2022-11-19T04:01:02.648Z,3.30
2022-11-19T04:02:03.017Z,3.60
2022-11-19T04:03:03.249Z,3.60
2022-11-19T04:04:02.821Z,3.60
2022-11-19T04:05:03.190Z,3.60
2022-11-19T04:06:02.852Z,3.60
2022-11-19T04:07:02.298Z,3.70
2022-11-19T04:08:02.692Z,3.70
2022-11-19T04:09:02.057Z,3.70
2022-11-19T04:10:02.270Z,3.70
2022-11-19T04:12:02.685Z,4.90
2022-11-19T04:13:03.142Z,4.90
2022-11-19T04:14:03.119Z,4.90
2022-11-19T04:15:03.152Z,4.90
2022-11-19T04:16:03.096Z,4.90
2022-11-19T04:17:02.380Z,5.30
2022-11-19T04:18:02.580Z,5.30
2022-11-19T04:19:02.148Z,5.30
2022-11-19T04:20:02.413Z,5.30
2022-11-19T04:21:02.615Z,5.30
2022-11-19T04:22:03.271Z,5.70
2022-11-19T04:23:02.797Z,5.70
2022-11-19T04:24:03.079Z,5.70
2022-11-19T04:25:02.921Z,5.70
2022-11-19T04:26:03.130Z,5.70
2022-11-19T04:27:02.522Z,4.90
2022-11-19T04:28:02.741Z,4.90
2022-11-19T04:29:02.271Z,4.90
2022-11-19T04:30:02.455Z,4.90
2022-11-19T04:31:02.760Z,4.90
2022-11-19T04:32:03.074Z,5.70
2022-11-19T04:33:03.388Z,5.70
2022-11-19T04:34:03.185Z,5.70
2022-11-19T04:35:02.766Z,5.70
2022-11-19T04:36:03.048Z,5.70
2022-11-19T04:37:02.423Z,6.60
2022-11-19T04:38:02.108Z,6.60
2022-11-19T04:39:02.311Z,6.60
2022-11-19T04:40:02.632Z,6.60
2022-11-19T04:41:02.189Z,6.60
2022-11-19T04:42:02.539Z,6.50
2022-11-19T04:43:02.397Z,6.50
2022-11-19T04:44:02.628Z,6.50
2022-11-19T04:45:02.284Z,6.50
2022-11-19T04:46:02.788Z,6.50
2022-11-19T04:47:02.909Z,8.20
2022-11-19T04:48:03.001Z,8.20
2022-11-19T04:49:02.649Z,8.20
2022-11-19T04:50:02.789Z,8.20
2022-11-19T04:51:03.103Z,8.20
2022-11-19T04:52:03.218Z,9.40
2022-11-19T04:53:02.875Z,9.40
2022-11-19T04:54:03.056Z,9.40
2022-11-19T04:55:03.413Z,9.40
2022-11-19T04:56:03.353Z,9.40
2022-11-19T04:57:02.663Z,8.40
2022-11-19T04:58:02.889Z,8.40
2022-11-19T04:59:02.842Z,8.40
2022-11-19T05:00:02.877Z,8.40
2022-11-19T05:01:02.326Z,8.40
2022-11-19T05:02:02.261Z,11.30
2022-11-19T05:03:02.650Z,11.30
2022-11-19T05:04:02.301Z,11.30
2022-11-19T05:05:02.521Z,11.30
2022-11-19T05:06:02.777Z,11.30
2022-11-19T05:07:02.162Z,11.80
2022-11-19T05:08:01.895Z,11.80
2022-11-19T05:09:02.217Z,11.80
2022-11-19T05:10:01.886Z,11.80
2022-11-19T05:11:02.246Z,11.80
2022-11-19T05:12:02.278Z,11.00
2022-11-19T05:13:02.235Z,11.00
2022-11-19T05:14:01.937Z,11.00
2022-11-19T05:15:02.409Z,11.00
2022-11-19T05:16:01.855Z,11.00
2022-11-19T05:17:02.901Z,12.40
2022-11-19T05:18:02.574Z,12.40
2022-11-19T05:19:02.948Z,12.40
2022-11-19T05:20:02.720Z,12.40
2022-11-19T05:21:02.933Z,12.40
2022-11-19T05:22:02.404Z,13.60
2022-11-19T05:23:01.830Z,13.60
2022-11-19T05:24:01.827Z,13.60
2022-11-19T05:25:02.096Z,13.60
2022-11-19T05:26:01.788Z,13.60
2022-11-19T05:27:02.139Z,14.80
2022-11-19T05:28:01.548Z,14.80
2022-11-19T05:29:01.572Z,14.80
2022-11-19T05:30:02.018Z,14.80
2022-11-19T05:31:02.025Z,14.80
2022-11-19T05:32:02.152Z,17.00
2022-11-19T05:33:01.952Z,17.00
2022-11-19T05:34:02.354Z,17.00
2022-11-19T05:35:02.078Z,17.00
2022-11-19T05:36:02.338Z,17.00
2022-11-19T05:37:02.737Z,17.80
2022-11-19T05:38:02.347Z,17.80
2022-11-19T05:39:02.377Z,17.80
2022-11-19T05:40:02.926Z,17.80
2022-11-19T05:41:02.422Z,17.80
2022-11-19T05:42:02.862Z,17.40
2022-11-19T05:43:02.224Z,17.40
2022-11-19T05:44:02.316Z,17.40
2022-11-19T05:45:02.658Z,17.40
2022-11-19T05:46:02.304Z,17.40
2022-11-19T05:47:01.775Z,20.80
2022-11-19T05:48:02.137Z,20.80
2022-11-19T05:49:02.002Z,20.80
2022-11-19T05:50:02.349Z,20.80
2022-11-19T05:51:02.373Z,20.80
2022-11-19T05:52:02.187Z,25.10
2022-11-19T05:53:02.197Z,25.10
2022-11-19T05:54:02.554Z,25.10
2022-11-19T05:55:02.286Z,25.10
2022-11-19T05:56:02.595Z,25.10
2022-11-19T05:57:02.862Z,23.90
2022-11-19T05:58:02.476Z,23.90
2022-11-19T05:59:02.732Z,23.90
2022-11-19T06:00:02.901Z,23.90
2022-11-19T06:01:02.982Z,23.90
2022-11-19T06:02:02.436Z,24.50
2022-11-19T06:03:02.691Z,24.50
2022-11-19T06:04:02.830Z,24.50
2022-11-19T06:05:02.703Z,24.50
2022-11-19T06:06:02.980Z,24.50
2022-11-19T06:07:02.522Z,24.70
2022-11-19T06:08:02.899Z,24.70
2022-11-19T06:09:02.558Z,24.70
2022-11-19T06:10:02.897Z,24.70
2022-11-19T06:11:03.090Z,24.70
2022-11-19T06:12:02.515Z,25.50
2022-11-19T06:13:02.882Z,25.50
2022-11-19T06:14:03.445Z,25.50
2022-11-19T06:15:02.805Z,25.50
2022-11-19T06:16:02.663Z,25.50
2022-11-19T06:17:02.983Z,27.40
2022-11-19T06:18:03.226Z,27.40
2022-11-19T06:19:03.577Z,27.40
2022-11-19T06:20:03.025Z,27.40
2022-11-19T06:21:06.002Z,27.40
2022-11-19T06:22:02.417Z,28.00
2022-11-19T06:23:02.777Z,28.00
2022-11-19T06:24:02.294Z,28.00
2022-11-19T06:25:02.704Z,28.00
2022-11-19T06:26:02.293Z,28.00
2022-11-19T06:27:02.905Z,28.70
2022-11-19T06:28:03.164Z,28.70
2022-11-19T06:29:03.432Z,28.70
2022-11-19T06:30:02.870Z,28.70
2022-11-19T06:31:03.268Z,28.70
2022-11-19T06:32:02.294Z,28.60
2022-11-19T06:33:02.841Z,28.60
2022-11-19T06:34:02.361Z,28.60
2022-11-19T06:35:02.610Z,28.60
2022-11-19T06:36:02.283Z,28.60
2022-11-19T06:37:02.623Z,31.90
2022-11-19T06:38:02.952Z,31.90
2022-11-19T06:39:02.955Z,31.90
2022-11-19T06:40:02.622Z,31.90
2022-11-19T06:41:03.330Z,28.50
2022-11-19T06:42:02.938Z,28.50
2022-11-19T06:43:03.380Z,28.50
2022-11-19T06:44:03.313Z,28.50
2022-11-19T06:45:03.076Z,28.50
2022-11-19T06:46:02.798Z,27.70
2022-11-19T06:47:02.295Z,27.70
2022-11-19T06:48:02.388Z,27.70
2022-11-19T06:49:02.118Z,27.70
2022-11-19T06:50:02.280Z,27.70
2022-11-19T06:51:02.727Z,31.10
2022-11-19T06:52:02.843Z,31.10
2022-11-19T06:53:03.225Z,31.10
2022-11-19T06:54:02.921Z,31.10
2022-11-19T06:55:02.977Z,31.10
2022-11-19T06:56:02.793Z,29.70
2022-11-19T06:57:02.661Z,29.70
2022-11-19T06:58:02.652Z,29.70
2022-11-19T06:59:02.506Z,29.70
2022-11-19T07:00:02.207Z,29.70
2022-11-19T07:01:02.478Z,33.50
2022-11-19T07:02:02.604Z,33.50
2022-11-19T07:03:02.453Z,33.50
2022-11-19T07:04:02.922Z,33.50
2022-11-19T07:05:02.328Z,33.50
2022-11-19T07:06:02.791Z,32.50
2022-11-19T07:07:02.684Z,32.50
2022-11-19T07:08:03.417Z,32.50
2022-11-19T07:09:02.660Z,32.50
2022-11-19T07:10:02.894Z,32.50
2022-11-19T07:11:02.571Z,35.00
2022-11-19T07:12:03.065Z,35.00
2022-11-19T07:13:03.358Z,35.00
2022-11-19T07:14:02.917Z,35.00
2022-11-19T07:15:04.788Z,35.00
2022-11-19T07:16:03.318Z,34.60
2022-11-19T07:17:03.157Z,34.60
2022-11-19T07:18:03.087Z,34.60
2022-11-19T07:19:02.970Z,34.60
2022-11-19T07:20:03.359Z,34.60
2022-11-19T07:21:03.138Z,37.80
2022-11-19T07:22:02.321Z,37.80
2022-11-19T07:23:02.009Z,37.80
2022-11-19T07:24:02.027Z,37.80
2022-11-19T07:25:02.452Z,37.80
2022-11-19T07:26:02.254Z,37.00
2022-11-19T07:27:02.696Z,37.00
2022-11-19T07:28:02.728Z,37.00
2022-11-19T07:29:04.900Z,37.00
2022-11-19T07:30:02.918Z,37.00
2022-11-19T07:31:02.635Z,35.40
2022-11-19T07:32:02.240Z,35.40
2022-11-19T07:33:02.245Z,35.40
2022-11-19T07:34:02.168Z,35.40
2022-11-19T07:35:02.000Z,35.40
2022-11-19T07:36:01.938Z,37.20
2022-11-19T07:37:02.336Z,37.20
2022-11-19T07:38:02.199Z,37.20
2022-11-19T07:39:02.106Z,37.20
2022-11-19T07:40:01.951Z,37.20
2022-11-19T07:41:02.046Z,36.00
2022-11-19T07:42:02.485Z,36.00
2022-11-19T07:43:02.379Z,36.00
2022-11-19T07:44:02.294Z,36.00
2022-11-19T07:45:02.505Z,36.00
2022-11-19T07:46:02.394Z,36.30
2022-11-19T07:47:03.095Z,36.30
2022-11-19T07:48:02.842Z,36.30
2022-11-19T07:49:03.251Z,36.30
2022-11-19T07:50:02.976Z,36.30
2022-11-19T07:51:02.726Z,38.60
2022-11-19T07:52:03.106Z,38.60
2022-11-19T07:53:03.284Z,38.60
2022-11-19T07:54:02.941Z,38.60
2022-11-19T07:55:02.855Z,38.60
2022-11-19T07:56:03.258Z,38.20
2022-11-19T07:57:02.518Z,38.20
2022-11-19T07:58:02.414Z,38.20
2022-11-19T07:59:02.617Z,38.20
2022-11-19T08:00:02.326Z,38.20
2022-11-19T08:01:02.192Z,38.20
2022-11-19T08:02:02.820Z,38.20
2022-11-19T08:03:02.371Z,38.20
2022-11-19T08:04:02.843Z,38.20
2022-11-19T08:05:02.439Z,38.20
2022-11-19T08:06:02.689Z,37.50
2022-11-19T08:07:03.374Z,37.50
2022-11-19T08:08:03.168Z,37.50
2022-11-19T08:09:03.391Z,37.50
2022-11-19T08:10:03.188Z,37.50
2022-11-19T08:11:03.062Z,35.90
2022-11-19T08:12:02.861Z,35.90
2022-11-19T08:13:03.515Z,35.90
2022-11-19T08:14:03.097Z,35.90
2022-11-19T08:15:03.146Z,35.90
2022-11-19T08:16:03.184Z,33.30
2022-11-19T08:17:02.261Z,33.30
2022-11-19T08:18:02.606Z,33.30
2022-11-19T08:19:02.372Z,33.30
2022-11-19T08:20:02.447Z,33.30
2022-11-19T08:21:02.347Z,34.40
2022-11-19T08:22:02.706Z,34.40
2022-11-19T08:23:02.448Z,34.40
2022-11-19T08:24:02.491Z,34.40
2022-11-19T08:25:02.531Z,34.40
2022-11-19T08:26:02.313Z,33.20
2022-11-19T08:27:02.723Z,33.20
2022-11-19T08:28:02.515Z,33.20
2022-11-19T08:29:02.664Z,33.20
2022-11-19T08:30:02.527Z,33.20
2022-11-19T08:31:02.262Z,33.10
2022-11-19T08:32:02.790Z,33.10
2022-11-19T08:33:02.592Z,33.10
2022-11-19T08:34:02.542Z,33.10
2022-11-19T08:35:02.460Z,33.10
2022-11-19T08:36:02.917Z,35.60
2022-11-19T08:37:03.621Z,35.60
2022-11-19T08:38:02.819Z,35.60
2022-11-19T08:39:03.314Z,35.60
2022-11-19T08:40:02.952Z,35.60
2022-11-19T08:41:02.836Z,33.00
2022-11-19T08:42:02.498Z,33.00
2022-11-19T08:43:02.153Z,33.00
2022-11-19T08:44:02.472Z,33.00
2022-11-19T08:45:02.550Z,33.00
2022-11-19T08:46:02.149Z,33.00
2022-11-19T08:47:02.701Z,33.00
2022-11-19T08:48:02.756Z,33.00
2022-11-19T08:49:02.254Z,33.00
2022-11-19T08:50:02.719Z,33.00
2022-11-19T08:51:02.269Z,30.00
2022-11-19T08:52:02.806Z,30.00
2022-11-19T08:53:02.339Z,30.00
2022-11-19T08:54:02.218Z,30.00
2022-11-19T08:55:02.580Z,30.00
2022-11-19T08:56:02.829Z,32.40
2022-11-19T08:57:02.741Z,32.40
2022-11-19T08:58:02.720Z,32.40
2022-11-19T08:59:03.467Z,32.40
2022-11-19T09:00:06.526Z,32.40
2022-11-19T09:01:02.971Z,29.70
2022-11-19T09:02:03.624Z,29.70
2022-11-19T09:03:03.135Z,29.70
2022-11-19T09:04:03.575Z,29.70
2022-11-19T09:05:03.472Z,29.70
2022-11-19T09:06:03.306Z,29.30
2022-11-19T09:07:02.981Z,29.30
2022-11-19T09:08:02.578Z,29.30
2022-11-19T09:09:02.307Z,29.30
2022-11-19T09:10:02.633Z,29.30
2022-11-19T09:11:02.498Z,30.50
2022-11-19T09:12:02.891Z,30.50
2022-11-19T09:13:02.648Z,30.50
2022-11-19T09:14:02.539Z,30.50
2022-11-19T09:15:02.399Z,30.50
2022-11-19T09:16:02.800Z,32.40
2022-11-19T09:17:03.311Z,32.40
2022-11-19T09:18:02.946Z,32.40
2022-11-19T09:19:02.760Z,32.40
2022-11-19T09:20:03.344Z,32.40
2022-11-19T09:21:02.942Z,33.30
2022-11-19T09:22:03.483Z,33.30
2022-11-19T09:23:03.029Z,33.30
2022-11-19T09:24:02.918Z,33.30
2022-11-19T09:25:03.312Z,33.30
2022-11-19T09:26:03.170Z,32.00
2022-11-19T09:27:03.690Z,32.00
2022-11-19T09:28:03.714Z,32.00
2022-11-19T09:29:03.363Z,32.00
2022-11-19T09:30:03.262Z,32.00
2022-11-19T09:31:03.946Z,30.20
2022-11-19T09:32:02.506Z,30.20
2022-11-19T09:33:03.030Z,30.20
2022-11-19T09:34:02.935Z,30.20
2022-11-19T09:35:03.260Z,30.20
2022-11-19T09:36:02.497Z,30.20
2022-11-19T09:37:02.496Z,30.20
2022-11-19T09:38:03.062Z,30.20
2022-11-19T09:39:03.028Z,30.20
2022-11-19T09:40:02.901Z,30.20
2022-11-19T09:41:02.605Z,32.30
2022-11-19T09:42:02.172Z,32.30
2022-11-19T09:43:02.771Z,32.30
2022-11-19T09:44:02.582Z,32.30
2022-11-19T09:45:02.596Z,32.30
2022-11-19T09:46:02.140Z,30.20
2022-11-19T09:47:02.651Z,30.20
2022-11-19T09:48:02.821Z,30.20
2022-11-19T09:49:02.722Z,30.20
2022-11-19T09:50:03.117Z,30.20
2022-11-19T09:51:02.993Z,29.90
2022-11-19T09:52:02.817Z,29.90
2022-11-19T09:53:03.324Z,29.90
2022-11-19T09:54:02.993Z,29.90
2022-11-19T09:55:02.690Z,29.90
2022-11-19T09:56:03.167Z,32.80
2022-11-19T09:57:04.521Z,32.80
2022-11-19T09:58:02.783Z,32.80
2022-11-19T09:59:02.386Z,32.80
2022-11-19T10:00:02.275Z,32.80
2022-11-19T10:01:02.666Z,30.40
2022-11-19T10:02:02.508Z,30.40
2022-11-19T10:03:03.032Z,30.40
2022-11-19T10:04:02.829Z,30.40
2022-11-19T10:05:02.683Z,30.40
2022-11-19T10:06:02.488Z,32.20
2022-11-19T10:07:03.096Z,32.20
2022-11-19T10:08:02.958Z,32.20
2022-11-19T10:09:03.309Z,32.20
2022-11-19T10:10:05.370Z,32.20
2022-11-19T10:11:02.943Z,30.90
2022-11-19T10:12:02.512Z,30.90
2022-11-19T10:13:02.602Z,30.90
2022-11-19T10:14:03.006Z,30.90
2022-11-19T10:15:02.687Z,30.90
2022-11-19T10:16:02.857Z,29.80
2022-11-19T10:17:02.599Z,29.80
2022-11-19T10:18:02.473Z,29.80
2022-11-19T10:19:02.933Z,29.80
2022-11-19T10:20:02.825Z,29.80
2022-11-19T10:21:02.822Z,28.30
2022-11-19T10:22:02.327Z,28.30
2022-11-19T10:23:02.644Z,28.30
2022-11-19T10:24:02.608Z,28.30
2022-11-19T10:25:02.491Z,28.30
2022-11-19T10:26:02.363Z,29.20
2022-11-19T10:27:08.252Z,29.20
2022-11-19T10:28:03.351Z,29.20
2022-11-19T10:29:03.345Z,29.20
2022-11-19T10:30:02.688Z,29.20
2022-11-19T10:31:03.343Z,26.30
2022-11-19T10:32:03.207Z,26.30
2022-11-19T10:33:03.281Z,26.30
2022-11-19T10:34:03.205Z,26.30
2022-11-19T10:35:03.021Z,26.30
2022-11-19T10:36:03.231Z,27.10
2022-11-19T10:37:02.667Z,27.10
2022-11-19T10:38:02.852Z,27.10
2022-11-19T10:39:03.000Z,27.10
2022-11-19T10:40:02.561Z,27.10
2022-11-19T10:41:02.909Z,27.30
2022-11-19T10:42:02.822Z,27.30
2022-11-19T10:43:02.607Z,27.30
2022-11-19T10:44:03.154Z,27.30
2022-11-19T10:45:02.622Z,27.30
2022-11-19T10:46:02.650Z,27.40
2022-11-19T10:47:02.265Z,27.40
2022-11-19T10:48:07.480Z,27.40
2022-11-19T10:49:02.548Z,27.40
2022-11-19T10:50:06.910Z,27.40
2022-11-19T10:51:02.313Z,25.30
2022-11-19T10:52:02.721Z,25.30
2022-11-19T10:53:02.694Z,25.30
2022-11-19T10:54:02.966Z,25.30
2022-11-19T10:55:03.069Z,25.30
2022-11-19T10:56:02.516Z,27.00
2022-11-19T10:57:03.060Z,27.00
2022-11-19T10:58:03.166Z,27.00
2022-11-19T10:59:02.885Z,27.00
2022-11-19T11:00:02.782Z,27.00
2022-11-19T11:01:02.855Z,25.00
2022-11-19T11:02:02.415Z,25.00
2022-11-19T11:03:02.502Z,25.00
2022-11-19T11:04:02.619Z,25.00
2022-11-19T11:05:02.267Z,25.00
2022-11-19T11:06:02.181Z,23.90
2022-11-19T11:07:02.863Z,23.90
2022-11-19T11:08:02.851Z,23.90
2022-11-19T11:09:02.682Z,23.90
2022-11-19T11:10:02.946Z,23.90
2022-11-19T11:11:02.599Z,28.80
2022-11-19T11:12:02.177Z,28.80
2022-11-19T11:13:01.959Z,28.80
2022-11-19T11:14:02.289Z,28.80
2022-11-19T11:15:01.804Z,28.80
2022-11-19T11:16:02.189Z,24.70
2022-11-19T11:17:02.563Z,24.70
2022-11-19T11:18:02.399Z,24.70
2022-11-19T11:19:02.801Z,24.70
2022-11-19T11:20:02.454Z,24.70
2022-11-19T11:21:02.668Z,26.00
2022-11-19T11:22:02.617Z,26.00
2022-11-19T11:23:02.475Z,26.00
2022-11-19T11:24:02.349Z,26.00
2022-11-19T11:25:07.072Z,26.00
2022-11-19T11:26:02.191Z,25.60
2022-11-19T11:27:02.342Z,25.60
2022-11-19T11:28:02.318Z,25.60
2022-11-19T11:29:02.140Z,25.60
2022-11-19T11:30:02.001Z,25.60
2022-11-19T11:31:02.146Z,27.40
2022-11-19T11:32:02.778Z,27.40
2022-11-19T11:33:06.532Z,27.40
2022-11-19T11:34:02.889Z,27.40
2022-11-19T11:35:06.906Z,27.40
2022-11-19T11:36:02.802Z,26.50
2022-11-19T11:37:02.518Z,26.50
2022-11-19T11:38:02.004Z,26.50
2022-11-19T11:39:01.924Z,26.50
2022-11-19T11:40:02.468Z,26.50
2022-11-19T11:41:30.353Z,23.70
2022-11-19T11:42:06.620Z,23.70
2022-11-19T11:43:02.121Z,23.70
2022-11-19T11:44:01.796Z,23.70
2022-11-19T11:45:01.658Z,23.70
2022-11-19T11:46:01.706Z,25.20
2022-11-19T11:47:02.126Z,25.20
2022-11-19T11:48:01.718Z,25.20
2022-11-19T11:49:08.352Z,25.20
2022-11-19T11:50:01.528Z,25.20
2022-11-19T11:51:02.109Z,24.40
2022-11-19T11:52:02.535Z,24.40
2022-11-19T11:53:02.578Z,24.40
2022-11-19T11:54:02.719Z,24.40
2022-11-19T11:55:02.079Z,24.40
2022-11-19T11:56:02.028Z,24.20
2022-11-19T11:57:02.560Z,24.20
2022-11-19T11:58:02.223Z,24.20
2022-11-19T11:59:02.282Z,24.20
2022-11-19T12:00:02.568Z,24.20
2022-11-19T12:01:02.077Z,24.10
2022-11-19T12:02:03.014Z,24.10
2022-11-19T12:03:02.566Z,24.10
2022-11-19T12:04:02.433Z,24.10
2022-11-19T12:05:02.852Z,24.10
2022-11-19T12:06:02.664Z,23.50
2022-11-19T12:07:03.136Z,23.50
2022-11-19T12:08:02.669Z,23.50
2022-11-19T12:09:02.574Z,23.50
2022-11-19T12:10:02.464Z,23.50
2022-11-19T12:11:02.500Z,23.90
2022-11-19T12:12:03.245Z,23.90
2022-11-19T12:13:02.992Z,23.90
2022-11-19T12:14:08.002Z,23.90
2022-11-19T12:15:02.822Z,23.90
2022-11-19T12:16:02.799Z,24.80
2022-11-19T12:17:03.332Z,24.80
2022-11-19T12:18:02.858Z,24.80
2022-11-19T12:19:02.757Z,24.80
2022-11-19T12:20:03.421Z,24.80
2022-11-19T12:21:05.222Z,23.90
2022-11-19T12:22:03.639Z,23.90
2022-11-19T12:23:03.336Z,23.90
2022-11-19T12:24:03.242Z,23.90
2022-11-19T12:25:03.138Z,23.90
2022-11-19T12:26:03.414Z,22.60
2022-11-19T12:27:02.325Z,22.60
2022-11-19T12:28:02.764Z,22.60
2022-11-19T12:29:02.524Z,22.60
2022-11-19T12:30:02.329Z,22.60
2022-11-19T12:31:02.615Z,23.20
2022-11-19T12:32:02.672Z,23.20
2022-11-19T12:33:02.734Z,23.20
2022-11-19T12:34:03.166Z,23.20
2022-11-19T12:35:03.019Z,23.20
2022-11-19T12:36:03.189Z,23.50
2022-11-19T12:37:02.937Z,23.50
2022-11-19T12:38:03.372Z,23.50
2022-11-19T12:39:03.314Z,23.50
2022-11-19T12:40:03.200Z,23.50
2022-11-19T12:41:03.051Z,22.40
2022-11-19T12:42:03.537Z,22.40
2022-11-19T12:43:03.170Z,22.40
2022-11-19T12:44:02.637Z,22.40
2022-11-19T12:45:02.540Z,22.40
2022-11-19T12:46:03.115Z,30.10
2022-11-19T12:47:02.950Z,30.10
2022-11-19T12:48:02.531Z,30.10
2022-11-19T12:49:02.308Z,30.10
2022-11-19T12:50:02.228Z,30.10
2022-11-19T12:51:02.744Z,24.40
2022-11-19T12:52:02.096Z,24.40
2022-11-19T12:53:02.691Z,24.40
2022-11-19T12:54:03.092Z,24.40
2022-11-19T12:55:02.620Z,24.40
2022-11-19T12:56:02.594Z,25.20
2022-11-19T12:57:02.799Z,25.20
2022-11-19T12:58:02.721Z,25.20
2022-11-19T12:59:02.726Z,25.20